Time;durP1;ratioP1;P1;durP2;ratioP2;P2;SDS_P1;SDS_P2;PMS_P1;PMS_P2;Temp;Humidity;BMP_temperature;BMP_pressure;BME280_temperature;BME280_humidity;BME280_pressure;Samples;Min_cycle;Max_cycle;Signal;HPM_P1;HPM_P2
2022/01/01 00:00:12;;;;;;;105.27;95.50;;;14.60;99.90;;;;;;5131544;27;20469;-62
2022/01/01 00:02:39;;;;;;;68.37;61.37;;;14.60;99.90;;;;;;5125842;27;20465;-63
2022/01/01 00:05:08;;;;;;;55.57;49.47;;;14.60;99.90;;;;;;5132789;27;20471;-63
2022/01/01 00:07:35;;;;;;;62.93;56.10;;;14.60;99.90;;;;;;5132508;27;20473;-62
2022/01/01 00:10:03;;;;;;;57.60;51.47;;;14.60;99.90;;;;;;5128804;27;20466;-62
2022/01/01 00:12:31;;;;;;;40.47;36.27;;;14.60;99.90;;;;;;5132826;27;20461;-62
2022/01/01 00:14:58;;;;;;;39.50;34.57;;;14.60;99.90;;;;;;5132081;27;20458;-63
2022/01/01 00:17:24;;;;;;;35.30;31.50;;;14.60;99.90;;;;;;5132121;27;20473;-63
2022/01/01 00:19:51;;;;;;;31.87;28.77;;;14.60;99.90;;;;;;5132426;27;20484;-63
2022/01/01 00:22:19;;;;;;;27.67;24.80;;;14.60;99.90;;;;;;5129813;27;20922;-63
2022/01/01 00:24:46;;;;;;;26.20;23.60;;;14.60;99.90;;;;;;5132475;27;20475;-62
2022/01/01 00:27:13;;;;;;;26.17;23.67;;;14.60;99.90;;;;;;5132790;27;20473;-62
2022/01/01 00:29:41;;;;;;;27.50;24.67;;;14.60;99.90;;;;;;5127572;27;20550;-63
2022/01/01 00:32:08;;;;;;;22.90;20.50;;;14.60;99.90;;;;;;5129261;27;20802;-63
2022/01/01 00:34:35;;;;;;;21.17;19.00;;;14.60;99.90;;;;;;5132846;27;20495;-63
2022/01/01 00:37:02;;;;;;;20.97;18.80;;;14.70;99.90;;;;;;5132028;27;20834;-62
2022/01/01 00:39:29;;;;;;;25.47;21.70;;;14.60;99.90;;;;;;5135238;27;20475;-63
2022/01/01 00:41:56;;;;;;;27.97;25.10;;;14.60;99.90;;;;;;5135789;27;20466;-62
2022/01/01 00:44:24;;;;;;;25.93;23.37;;;14.60;99.90;;;;;;5130900;27;20815;-62
2022/01/01 00:46:52;;;;;;;25.50;23.10;;;14.60;99.90;;;;;;5139372;27;20559;-62
2022/01/01 00:49:20;;;;;;;24.70;22.07;;;14.60;99.90;;;;;;5146233;27;20485;-62
2022/01/01 00:51:47;;;;;;;17.33;15.70;;;14.60;99.90;;;;;;5132113;27;20629;-66
2022/01/01 00:54:14;;;;;;;20.20;17.23;;;14.60;99.90;;;;;;5126591;27;20471;-64
2022/01/01 00:56:41;;;;;;;19.83;17.77;;;14.60;99.90;;;;;;5135710;27;20483;-62
2022/01/01 00:59:08;;;;;;;17.50;15.80;;;14.60;99.90;;;;;;5136335;27;20459;-62
2022/01/01 01:01:36;;;;;;;18.07;16.17;;;14.60;99.90;;;;;;5135897;27;20505;-62
2022/01/01 01:04:05;;;;;;;20.10;18.20;;;14.60;99.90;;;;;;5128406;27;20461;-62
2022/01/01 01:06:32;;;;;;;16.53;14.93;;;14.60;99.90;;;;;;5135116;27;20471;-63
2022/01/01 01:09:00;;;;;;;18.33;16.53;;;14.60;99.90;;;;;;5135601;27;20467;-63
2022/01/01 01:11:27;;;;;;;17.70;16.00;;;14.60;99.90;;;;;;5135678;27;20483;-62
2022/01/01 01:13:58;;;;;;;16.77;15.07;;;14.70;99.90;;;;;;5135335;27;20565;-63
2022/01/01 01:16:26;;;;;;;18.27;16.47;;;14.70;99.90;;;;;;5122542;27;20467;-62
2022/01/01 01:18:54;;;;;;;17.03;15.33;;;14.70;99.90;;;;;;5135415;27;20481;-63
2022/01/01 01:21:23;;;;;;;19.00;17.00;;;14.70;99.90;;;;;;5134868;27;20546;-63
2022/01/01 01:23:51;;;;;;;18.00;16.27;;;14.60;99.90;;;;;;5135074;27;20552;-63
2022/01/01 01:26:18;;;;;;;17.87;16.17;;;14.70;99.90;;;;;;5135248;27;20559;-63
2022/01/01 01:28:47;;;;;;;17.53;15.20;;;14.60;99.90;;;;;;5134910;27;20798;-62
2022/01/01 01:31:14;;;;;;;17.13;15.53;;;14.60;99.90;;;;;;5134943;27;20555;-63
2022/01/01 01:33:41;;;;;;;17.10;15.30;;;14.70;99.90;;;;;;5135339;27;20458;-62
2022/01/01 01:36:08;;;;;;;20.33;18.33;;;14.60;99.90;;;;;;5135246;27;21240;-63
2022/01/01 01:38:36;;;;;;;23.93;18.70;;;14.60;99.90;;;;;;5135055;27;20815;-62
2022/01/01 01:41:04;;;;;;;18.87;16.33;;;14.60;99.90;;;;;;5134382;27;20470;-63
2022/01/01 01:43:31;;;;;;;16.37;14.83;;;14.60;99.90;;;;;;5129808;27;20470;-63
2022/01/01 01:46:03;;;;;;;14.67;13.30;;;14.60;99.90;;;;;;5134352;27;20865;-63
2022/01/01 01:48:31;;;;;;;18.33;16.53;;;14.60;99.90;;;;;;5148652;27;20518;-63
2022/01/01 01:50:58;;;;;;;16.87;15.07;;;14.60;99.90;;;;;;5134415;27;20462;-63
2022/01/01 01:53:25;;;;;;;15.43;13.93;;;14.60;99.90;;;;;;5121932;27;21011;-63
2022/01/01 01:55:54;;;;;;;18.70;15.60;;;14.60;99.90;;;;;;5125828;27;20466;-63
2022/01/01 01:58:21;;;;;;;16.27;14.67;;;14.60;99.90;;;;;;5135079;27;20465;-62
2022/01/01 02:03:41;;;;;;;35.60;26.30;;;14.50;99.90;;;;;;5086509;27;20463;-63
2022/01/01 02:06:08;;;;;;;16.38;14.77;;;14.50;99.90;;;;;;5134331;27;20469;-62
2022/01/01 02:08:35;;;;;;;14.13;12.60;;;14.50;99.90;;;;;;5134353;27;20227;-62
2022/01/01 02:11:04;;;;;;;16.13;14.53;;;14.50;99.90;;;;;;5134207;27;20481;-63
2022/01/01 02:13:35;;;;;;;13.17;11.97;;;14.50;99.90;;;;;;5133905;27;20549;-63
2022/01/01 02:16:29;;;;;;;13.40;12.00;;;14.60;99.90;;;;;;5133918;27;20550;-63
2022/01/01 02:18:56;;;;;;;14.50;13.00;;;14.50;99.90;;;;;;5133839;27;21025;-63
2022/01/01 02:21:25;;;;;;;25.20;18.73;;;14.60;99.90;;;;;;5134190;27;20473;-63
2022/01/01 02:23:57;;;;;;;14.20;12.13;;;14.60;99.90;;;;;;5133422;27;20483;-63
2022/01/01 02:26:33;;;;;;;14.93;13.07;;;14.60;99.90;;;;;;5134299;27;20749;-63
2022/01/01 02:29:00;;;;;;;16.60;13.67;;;14.60;99.90;;;;;;5133461;27;20466;-63
2022/01/01 02:31:28;;;;;;;17.30;15.50;;;14.60;99.90;;;;;;5134291;27;20474;-63
2022/01/01 02:33:55;;;;;;;15.17;13.17;;;14.60;99.90;;;;;;5133829;27;20822;-63
2022/01/01 02:36:37;;;;;;;14.00;12.70;;;14.70;99.90;;;;;;5134280;27;20464;-63
2022/01/01 02:39:12;;;;;;;14.30;12.80;;;14.70;99.90;;;;;;5120922;27;20465;-63
2022/01/01 02:41:39;;;;;;;17.20;14.60;;;14.70;99.90;;;;;;5133846;27;20478;-64
2022/01/01 02:44:07;;;;;;;13.17;11.87;;;14.80;99.90;;;;;;5133292;27;20470;-63
2022/01/01 02:46:34;;;;;;;16.33;13.63;;;14.80;99.90;;;;;;5133409;27;20462;-63
2022/01/01 02:49:01;;;;;;;15.13;12.77;;;14.80;99.90;;;;;;5133940;27;20488;-63
2022/01/01 02:51:28;;;;;;;13.93;11.97;;;14.80;99.90;;;;;;5133207;27;20788;-64
2022/01/01 02:53:56;;;;;;;12.87;11.00;;;14.80;99.90;;;;;;5118075;27;20462;-63
2022/01/01 02:56:23;;;;;;;13.07;11.60;;;14.80;99.90;;;;;;5129102;27;20803;-62
2022/01/01 02:58:50;;;;;;;12.67;11.40;;;14.90;99.90;;;;;;5133574;27;20477;-63
2022/01/01 03:01:17;;;;;;;17.80;16.00;;;14.90;99.90;;;;;;5132461;27;20553;-63
2022/01/01 03:03:44;;;;;;;13.67;12.23;;;14.80;99.90;;;;;;5129476;27;20872;-63
2022/01/01 03:06:11;;;;;;;15.37;13.73;;;14.90;99.90;;;;;;5129159;27;20494;-63
2022/01/01 03:08:38;;;;;;;19.50;16.30;;;14.80;99.90;;;;;;5133484;27;20494;-63
2022/01/01 03:11:07;;;;;;;13.00;11.70;;;14.80;99.90;;;;;;5133024;27;20886;-62
2022/01/01 03:13:34;;;;;;;12.57;11.27;;;14.80;99.90;;;;;;5133026;27;20477;-63
2022/01/01 03:16:01;;;;;;;15.07;12.03;;;14.80;99.90;;;;;;5133161;27;20463;-62
2022/01/01 03:18:28;;;;;;;12.43;10.70;;;14.90;99.90;;;;;;5133590;27;20807;-63
2022/01/01 03:20:54;;;;;;;11.73;10.53;;;14.90;99.90;;;;;;5132807;27;20975;-64
2022/01/01 03:23:21;;;;;;;13.57;12.13;;;14.90;99.90;;;;;;5133461;27;20468;-62
2022/01/01 03:25:48;;;;;;;17.73;15.83;;;14.90;99.90;;;;;;5133426;27;20466;-63
2022/01/01 03:28:17;;;;;;;13.07;11.70;;;14.80;99.90;;;;;;5132764;27;20978;-63
2022/01/01 03:30:44;;;;;;;12.27;10.80;;;14.90;99.90;;;;;;5133318;27;20549;-62
2022/01/01 03:33:11;;;;;;;12.23;11.03;;;14.90;99.90;;;;;;5132926;27;20605;-62
2022/01/01 03:35:38;;;;;;;14.67;10.30;;;14.90;99.90;;;;;;5132928;27;20472;-63
2022/01/01 03:38:05;;;;;;;13.90;10.83;;;14.90;99.90;;;;;;5133136;27;20948;-63
2022/01/01 03:40:32;;;;;;;11.53;9.10;;;14.80;99.90;;;;;;5133016;27;20469;-65
2022/01/01 03:42:59;;;;;;;12.20;10.90;;;14.80;99.90;;;;;;5132973;27;20467;-64
2022/01/01 03:45:27;;;;;;;17.33;14.63;;;14.80;99.90;;;;;;5132415;27;20473;-62
2022/01/01 03:47:54;;;;;;;155.63;88.07;;;14.80;99.90;;;;;;5144743;27;20543;-62
2022/01/01 03:50:21;;;;;;;18.93;14.90;;;14.80;99.90;;;;;;5133359;27;20561;-63
2022/01/01 03:52:48;;;;;;;13.90;10.87;;;14.80;99.90;;;;;;5120473;27;20467;-63
2022/01/01 03:55:16;;;;;;;13.43;11.50;;;14.80;99.90;;;;;;5131182;27;20467;-64
2022/01/01 03:57:43;;;;;;;13.43;10.30;;;14.80;99.90;;;;;;5132693;27;20481;-63
2022/01/01 04:00:12;;;;;;;13.07;11.17;;;14.80;99.90;;;;;;5132255;27;20556;-63
2022/01/01 04:02:40;;;;;;;12.60;9.83;;;14.80;99.90;;;;;;5132836;27;20475;-62
2022/01/01 04:05:08;;;;;;;14.17;9.90;;;14.80;99.90;;;;;;5132847;27;20550;-62
2022/01/01 04:07:35;;;;;;;11.27;9.40;;;14.80;99.90;;;;;;5132824;27;20817;-63
2022/01/01 04:10:03;;;;;;;11.87;8.33;;;14.80;99.90;;;;;;5132555;27;20848;-63
2022/01/01 04:12:30;;;;;;;11.50;10.20;;;14.70;99.90;;;;;;5134085;27;20809;-66
2022/01/01 04:14:59;;;;;;;17.80;11.13;;;14.70;99.90;;;;;;5136655;27;20475;-63
2022/01/01 04:17:27;;;;;;;12.90;11.40;;;14.70;99.90;;;;;;5136534;27;20470;-63
2022/01/01 04:19:55;;;;;;;12.93;10.37;;;14.70;99.90;;;;;;5125589;27;20964;-63
2022/01/01 04:22:22;;;;;;;12.40;10.00;;;14.70;99.90;;;;;;5136366;27;20477;-62
2022/01/01 04:24:48;;;;;;;14.03;10.23;;;14.70;99.90;;;;;;5136529;27;20484;-64
2022/01/01 04:27:15;;;;;;;11.47;10.27;;;14.70;99.90;;;;;;5136002;27;20470;-62
2022/01/01 04:29:44;;;;;;;13.00;10.33;;;14.70;99.90;;;;;;5136768;27;20480;-62
2022/01/01 04:32:13;;;;;;;18.60;15.70;;;14.70;99.90;;;;;;5135773;27;20478;-62
2022/01/01 04:34:41;;;;;;;18.40;13.80;;;14.70;99.90;;;;;;5136380;27;20471;-63
2022/01/01 04:37:12;;;;;;;13.97;10.70;;;14.70;99.90;;;;;;5135976;27;20471;-62
2022/01/01 04:39:40;;;;;;;11.93;10.60;;;14.80;99.90;;;;;;5136453;27;20497;-64
2022/01/01 04:42:07;;;;;;;12.10;10.23;;;14.80;99.90;;;;;;5130042;27;20967;-63
2022/01/01 04:44:34;;;;;;;13.03;11.47;;;14.80;99.90;;;;;;5136250;27;20484;-63
2022/01/01 04:47:01;;;;;;;15.00;11.97;;;14.80;99.90;;;;;;5140466;27;20483;-64
2022/01/01 04:49:28;;;;;;;15.20;11.43;;;14.80;99.90;;;;;;5144796;27;20463;-63
2022/01/01 04:51:55;;;;;;;11.13;9.97;;;14.80;99.90;;;;;;5131405;27;20580;-63
2022/01/01 04:54:23;;;;;;;10.97;9.80;;;14.80;99.90;;;;;;5119916;27;20474;-63
2022/01/01 04:56:50;;;;;;;11.80;10.67;;;14.80;99.90;;;;;;5134900;27;20479;-64
2022/01/01 04:59:17;;;;;;;12.60;10.90;;;14.80;99.90;;;;;;5135511;27;20697;-62
2022/01/01 05:01:45;;;;;;;12.77;9.90;;;14.80;99.90;;;;;;5135417;27;20465;-63
2022/01/01 05:04:12;;;;;;;12.20;10.10;;;14.80;99.90;;;;;;5135382;27;20815;-63
2022/01/01 05:06:42;;;;;;;12.93;9.87;;;14.80;99.90;;;;;;5135510;27;20466;-62
2022/01/01 05:09:09;;;;;;;11.83;9.17;;;14.90;99.90;;;;;;5135398;27;20787;-63
2022/01/01 05:11:37;;;;;;;13.93;12.30;;;14.90;99.90;;;;;;5126644;27;20950;-63
2022/01/01 05:14:04;;;;;;;19.27;13.03;;;14.80;99.90;;;;;;5135454;27;20467;-63
2022/01/01 05:16:33;;;;;;;15.20;13.30;;;14.90;99.90;;;;;;5136065;27;20534;-63
2022/01/01 05:19:00;;;;;;;16.53;12.10;;;14.80;99.90;;;;;;5135800;27;20842;-63
2022/01/01 05:21:31;;;;;;;15.60;11.50;;;14.90;99.90;;;;;;5135300;27;21354;-62
2022/01/01 05:23:58;;;;;;;17.93;13.57;;;14.80;99.90;;;;;;5134965;27;21086;-62
2022/01/01 05:26:25;;;;;;;59.00;39.00;;;14.80;99.90;;;;;;5135434;27;20461;-63
2022/01/01 05:28:53;;;;;;;20.77;18.33;;;14.80;99.90;;;;;;5135625;27;20475;-62
2022/01/01 05:31:21;;;;;;;24.90;17.10;;;14.80;99.90;;;;;;5134493;27;20508;-63
2022/01/01 05:33:48;;;;;;;19.07;14.83;;;14.80;99.90;;;;;;5135661;27;20461;-62
2022/01/01 05:36:15;;;;;;;14.67;13.27;;;14.80;99.90;;;;;;5135057;27;21010;-62
2022/01/01 05:38:42;;;;;;;16.90;13.90;;;14.80;99.90;;;;;;5135484;27;20477;-62
2022/01/01 05:41:09;;;;;;;21.83;17.23;;;14.80;99.90;;;;;;5131489;27;20467;-62
2022/01/01 05:43:36;;;;;;;19.47;15.27;;;14.80;99.90;;;;;;5132762;27;20480;-62
2022/01/01 05:46:05;;;;;;;20.63;13.50;;;14.80;99.90;;;;;;5135421;27;20482;-62
2022/01/01 05:48:32;;;;;;;18.53;15.17;;;14.70;99.90;;;;;;5120896;27;20462;-62
2022/01/01 05:50:59;;;;;;;17.97;13.63;;;14.70;99.90;;;;;;5134900;27;20466;-63
2022/01/01 05:53:26;;;;;;;16.83;13.90;;;14.70;99.90;;;;;;5134628;27;20517;-62
2022/01/01 05:55:53;;;;;;;15.20;13.30;;;14.80;99.90;;;;;;5135033;27;20818;-62
2022/01/01 05:58:20;;;;;;;23.73;18.00;;;14.80;99.90;;;;;;5134579;27;20467;-62
2022/01/01 06:00:47;;;;;;;16.77;13.07;;;14.80;99.90;;;;;;5135128;27;20480;-62
2022/01/01 06:03:17;;;;;;;18.27;13.23;;;14.70;99.90;;;;;;5134349;27;20549;-62
2022/01/01 06:05:44;;;;;;;18.60;12.53;;;14.70;99.90;;;;;;5134710;27;20496;-62
2022/01/01 06:08:13;;;;;;;16.40;12.87;;;14.70;99.90;;;;;;5134247;27;20955;-62
2022/01/01 06:10:40;;;;;;;18.73;14.70;;;14.80;99.90;;;;;;5134832;27;20467;-62
2022/01/01 06:13:07;;;;;;;15.83;11.67;;;14.70;99.90;;;;;;5134756;27;20469;-62
2022/01/01 06:15:34;;;;;;;30.97;22.87;;;14.80;99.90;;;;;;5134611;27;21309;-62
2022/01/01 06:18:01;;;;;;;20.83;15.90;;;14.70;99.90;;;;;;5134541;27;20489;-62
2022/01/01 06:20:29;;;;;;;22.30;14.63;;;14.80;99.90;;;;;;5133575;27;20466;-62
2022/01/01 06:22:56;;;;;;;18.07;14.77;;;14.80;99.90;;;;;;5121109;27;20481;-62
2022/01/01 06:25:23;;;;;;;17.50;15.60;;;14.80;99.90;;;;;;5134005;27;20472;-62
2022/01/01 06:27:49;;;;;;;25.23;18.17;;;14.80;99.90;;;;;;5134637;27;20493;-63
2022/01/01 06:30:16;;;;;;;17.37;12.87;;;14.80;99.90;;;;;;5133971;27;20469;-63
2022/01/01 06:32:43;;;;;;;18.50;14.80;;;14.80;99.90;;;;;;5134441;27;20467;-63
2022/01/01 06:35:10;;;;;;;19.70;15.37;;;14.80;99.90;;;;;;5134273;27;20487;-62
2022/01/01 06:37:38;;;;;;;16.30;12.77;;;14.80;99.90;;;;;;5133041;27;21007;-62
2022/01/01 06:40:06;;;;;;;14.67;12.17;;;14.80;99.90;;;;;;5133914;27;20474;-62
2022/01/01 06:42:33;;;;;;;22.80;16.70;;;14.80;99.90;;;;;;5133986;27;20477;-62
2022/01/01 06:45:00;;;;;;;15.30;12.43;;;14.80;99.90;;;;;;5134016;27;20467;-62
2022/01/01 06:47:27;;;;;;;15.80;10.37;;;14.90;99.90;;;;;;5131086;27;20470;-62
2022/01/01 06:49:53;;;;;;;15.70;12.87;;;14.90;99.90;;;;;;5123380;27;20472;-62
2022/01/01 06:52:20;;;;;;;25.60;18.07;;;14.90;99.90;;;;;;5133508;27;20466;-63
2022/01/01 06:54:48;;;;;;;17.97;12.90;;;14.90;99.90;;;;;;5134077;27;20469;-62
2022/01/01 06:57:15;;;;;;;15.07;11.63;;;14.80;99.90;;;;;;5133645;27;20471;-62
2022/01/01 06:59:42;;;;;;;17.97;11.63;;;14.90;99.90;;;;;;5134001;27;20479;-62
2022/01/01 07:02:09;;;;;;;16.73;12.57;;;14.80;99.90;;;;;;5133806;27;20991;-62
2022/01/01 07:04:35;;;;;;;18.63;12.60;;;14.80;99.90;;;;;;5133534;27;20471;-63
2022/01/01 07:07:02;;;;;;;16.70;12.30;;;14.90;99.90;;;;;;5133628;27;20830;-63
2022/01/01 07:09:29;;;;;;;21.07;14.60;;;14.90;99.90;;;;;;5133346;27;20473;-63
2022/01/01 07:11:57;;;;;;;17.77;13.20;;;14.80;99.90;;;;;;5133854;27;20477;-63
2022/01/01 07:14:24;;;;;;;24.80;21.03;;;14.80;99.90;;;;;;5133460;27;20486;-63
2022/01/01 07:16:51;;;;;;;14.10;11.77;;;14.80;99.90;;;;;;5133764;27;20481;-62
2022/01/01 07:19:18;;;;;;;19.30;13.90;;;14.80;99.90;;;;;;5133248;27;20474;-63
2022/01/01 07:21:45;;;;;;;16.10;12.70;;;14.80;99.90;;;;;;5133601;27;20469;-62
2022/01/01 07:24:12;;;;;;;24.77;15.17;;;14.80;99.90;;;;;;5133685;27;20481;-63
2022/01/01 07:26:38;;;;;;;30.53;24.20;;;14.80;99.90;;;;;;5133001;27;20458;-63
2022/01/01 07:29:07;;;;;;;23.60;17.00;;;14.70;99.90;;;;;;5133632;27;20785;-63
2022/01/01 07:31:33;;;;;;;22.47;14.20;;;14.80;99.90;;;;;;5132992;27;20474;-63
2022/01/01 07:34:00;;;;;;;17.30;13.67;;;14.80;99.90;;;;;;5133472;27;20471;-63
2022/01/01 07:36:27;;;;;;;17.08;13.23;;;14.80;99.90;;;;;;5133052;27;20466;-63
2022/01/01 07:38:55;;;;;;;20.57;15.17;;;14.80;99.90;;;;;;5132756;27;20677;-63
2022/01/01 07:41:22;;;;;;;21.30;14.50;;;14.80;99.90;;;;;;5131858;27;20501;-63
2022/01/01 07:43:49;;;;;;;19.43;13.47;;;14.80;99.90;;;;;;5133404;27;20464;-63
2022/01/01 07:46:17;;;;;;;17.63;14.23;;;14.80;99.90;;;;;;5133610;27;20471;-63
2022/01/01 07:48:44;;;;;;;27.40;17.80;;;14.80;99.90;;;;;;5136435;27;21244;-63
2022/01/01 07:51:10;;;;;;;18.40;14.37;;;14.80;99.90;;;;;;5136985;27;20466;-64
2022/01/01 07:53:37;;;;;;;15.73;14.03;;;14.80;99.90;;;;;;5135472;27;20466;-64
2022/01/01 07:56:05;;;;;;;17.40;11.07;;;14.80;99.90;;;;;;5135889;27;20477;-64
2022/01/01 07:58:32;;;;;;;23.00;14.63;;;14.80;99.90;;;;;;5135428;27;20466;-63
2022/01/01 08:00:58;;;;;;;18.37;13.90;;;14.80;99.90;;;;;;5135801;27;20468;-63
2022/01/01 08:03:27;;;;;;;17.27;13.10;;;14.80;99.90;;;;;;5135444;27;20460;-63
2022/01/01 08:05:54;;;;;;;20.13;14.13;;;14.80;99.90;;;;;;5136436;27;20487;-63
2022/01/01 08:08:21;;;;;;;17.27;13.87;;;14.80;99.90;;;;;;5136781;27;20489;-64
2022/01/01 08:10:48;;;;;;;18.93;13.30;;;14.80;99.90;;;;;;5137295;27;20471;-63
2022/01/01 08:13:22;;;;;;;18.13;13.00;;;14.80;99.90;;;;;;5137416;27;20467;-63
2022/01/01 08:15:50;;;;;;;16.00;11.67;;;14.90;99.90;;;;;;5137023;27;20462;-64
2022/01/01 08:18:17;;;;;;;18.40;13.90;;;14.90;99.90;;;;;;5137295;27;20468;-64
2022/01/01 08:20:45;;;;;;;24.43;17.93;;;14.80;99.90;;;;;;5135531;27;20467;-64
2022/01/01 08:23:12;;;;;;;18.50;13.00;;;14.80;99.90;;;;;;5137063;27;20462;-63
2022/01/01 08:25:39;;;;;;;18.07;12.27;;;14.80;99.90;;;;;;5136596;27;20952;-63
2022/01/01 08:28:07;;;;;;;20.93;14.43;;;14.80;99.90;;;;;;5137276;27;20477;-63
2022/01/01 08:30:34;;;;;;;18.63;13.80;;;14.80;99.90;;;;;;5136414;27;20813;-63
2022/01/01 08:33:02;;;;;;;18.47;15.00;;;14.80;99.90;;;;;;5136864;27;20963;-63
2022/01/01 08:35:29;;;;;;;14.03;11.87;;;14.80;99.90;;;;;;5136496;27;20477;-62
2022/01/01 08:37:58;;;;;;;17.90;12.67;;;14.80;99.90;;;;;;5136996;27;20470;-63
2022/01/01 08:40:24;;;;;;;18.33;12.17;;;14.80;99.90;;;;;;5136691;27;20475;-63
2022/01/01 08:42:52;;;;;;;18.03;13.93;;;14.90;99.90;;;;;;5136538;27;20517;-63
2022/01/01 08:45:18;;;;;;;16.73;15.00;;;14.80;99.90;;;;;;5136514;27;20460;-63
2022/01/01 08:47:45;;;;;;;16.37;12.33;;;14.80;99.90;;;;;;5136280;27;20469;-63
2022/01/01 08:50:13;;;;;;;17.23;13.77;;;14.80;99.90;;;;;;5136553;27;20476;-63
2022/01/01 08:52:40;;;;;;;18.50;12.93;;;14.80;99.90;;;;;;5136028;27;20466;-63
2022/01/01 08:55:09;;;;;;;18.00;14.00;;;14.90;99.90;;;;;;5136459;27;20465;-63
2022/01/01 08:57:36;;;;;;;19.47;11.53;;;14.90;99.90;;;;;;5136155;27;20470;-63
2022/01/01 09:00:08;;;;;;;15.43;11.50;;;14.90;99.90;;;;;;5135114;27;20475;-63
2022/01/01 09:02:35;;;;;;;16.40;12.40;;;14.90;99.90;;;;;;5135813;27;20807;-63
2022/01/01 09:05:02;;;;;;;14.73;11.53;;;14.90;99.90;;;;;;5136416;27;20461;-63
2022/01/01 09:07:29;;;;;;;21.47;14.80;;;14.90;99.90;;;;;;5135548;27;20464;-63
2022/01/01 09:09:56;;;;;;;18.40;13.07;;;14.90;99.90;;;;;;5136124;27;20459;-62
2022/01/01 09:12:26;;;;;;;17.70;12.67;;;15.00;99.90;;;;;;5136130;27;20970;-63
2022/01/01 09:14:53;;;;;;;21.37;15.60;;;15.00;99.90;;;;;;5135673;27;20460;-63
2022/01/01 09:17:20;;;;;;;19.67;15.13;;;15.00;99.90;;;;;;5136072;27;20473;-63
2022/01/01 09:19:49;;;;;;;20.87;14.97;;;15.00;99.90;;;;;;5135602;27;20470;-63
2022/01/01 09:22:16;;;;;;;20.17;13.03;;;15.00;99.90;;;;;;5135848;27;20481;-62
2022/01/01 09:24:43;;;;;;;22.57;16.30;;;15.00;99.90;;;;;;5135400;27;20466;-62
2022/01/01 09:27:10;;;;;;;17.90;13.67;;;15.00;99.90;;;;;;5135986;27;20515;-62
2022/01/01 09:29:38;;;;;;;18.07;12.50;;;15.00;99.90;;;;;;5135224;27;20461;-62
2022/01/01 09:32:06;;;;;;;20.20;14.50;;;15.10;99.90;;;;;;5135659;27;20461;-62
2022/01/01 09:34:32;;;;;;;25.90;14.77;;;15.10;99.90;;;;;;5135257;27;20465;-62
2022/01/01 09:36:59;;;;;;;19.67;15.03;;;15.10;99.90;;;;;;5135531;27;20469;-62
2022/01/01 09:39:26;;;;;;;44.47;27.97;;;15.10;99.90;;;;;;5135593;27;20470;-62
2022/01/01 09:41:53;;;;;;;20.73;14.00;;;15.10;99.90;;;;;;5135061;27;20470;-62
2022/01/01 09:44:21;;;;;;;23.00;16.23;;;15.10;99.90;;;;;;5135548;27;20466;-62
2022/01/01 09:46:51;;;;;;;26.13;14.13;;;15.20;99.90;;;;;;5135057;27;20461;-62
2022/01/01 09:49:18;;;;;;;24.93;17.40;;;15.20;99.90;;;;;;5135312;27;20483;-63
2022/01/01 09:51:46;;;;;;;22.67;14.97;;;15.20;99.90;;;;;;5134892;27;20971;-62
2022/01/01 09:54:13;;;;;;;19.00;13.63;;;15.20;99.90;;;;;;5135238;27;20542;-62
2022/01/01 09:56:40;;;;;;;19.13;14.77;;;15.20;99.90;;;;;;5134712;27;20863;-62
2022/01/01 09:59:07;;;;;;;23.70;15.83;;;15.10;99.90;;;;;;5135118;27;20479;-62
2022/01/01 10:01:34;;;;;;;20.37;14.03;;;15.10;99.90;;;;;;5134618;27;20556;-62
2022/01/01 10:04:11;;;;;;;21.87;15.57;;;15.10;99.90;;;;;;5134830;27;20458;-62
2022/01/01 10:06:38;;;;;;;22.20;14.27;;;15.10;99.90;;;;;;5134366;27;20489;-62
2022/01/01 10:09:07;;;;;;;22.73;15.30;;;15.20;99.90;;;;;;5135019;27;20541;-62
2022/01/01 10:11:34;;;;;;;29.17;19.57;;;15.10;99.90;;;;;;5134435;27;20856;-62
2022/01/01 10:14:06;;;;;;;25.87;17.67;;;15.10;99.90;;;;;;5135004;27;20483;-62
2022/01/01 10:16:33;;;;;;;29.20;21.70;;;15.20;99.90;;;;;;5134816;27;20473;-62
2022/01/01 10:19:03;;;;;;;24.90;16.00;;;15.20;99.90;;;;;;5134700;27;21216;-62
2022/01/01 10:21:38;;;;;;;19.67;14.93;;;15.20;99.90;;;;;;5134755;27;20519;-62
2022/01/01 10:24:12;;;;;;;22.70;16.60;;;15.20;99.90;;;;;;5134343;27;20527;-63
2022/01/01 10:29:33;;;;;;;19.53;14.57;;;15.30;99.90;;;;;;5097434;27;20481;-62
2022/01/01 10:32:02;;;;;;;19.07;15.10;;;15.20;99.90;;;;;;5134623;27;20485;-62
2022/01/01 10:34:33;;;;;;;17.80;15.90;;;15.20;99.90;;;;;;5134139;27;20471;-62
2022/01/01 10:37:01;;;;;;;20.40;14.63;;;15.30;99.90;;;;;;5134532;27;20460;-63
2022/01/01 10:39:28;;;;;;;22.07;15.13;;;15.30;99.90;;;;;;5134013;27;20556;-62
2022/01/01 10:41:58;;;;;;;29.60;22.50;;;15.20;99.90;;;;;;5134352;27;20469;-62
2022/01/01 10:44:30;;;;;;;23.03;14.67;;;15.30;99.90;;;;;;5133989;27;20804;-62
2022/01/01 10:46:57;;;;;;;25.50;15.93;;;15.30;99.90;;;;;;5134351;27;20828;-62
2022/01/01 10:49:34;;;;;;;19.03;13.70;;;15.20;99.90;;;;;;5133867;27;20549;-62
2022/01/01 10:52:20;;;;;;;22.23;15.97;;;15.20;99.90;;;;;;5134181;27;20462;-62
2022/01/01 10:54:58;;;;;;;23.10;17.07;;;15.20;99.90;;;;;;5134037;27;20881;-63
2022/01/01 10:57:33;;;;;;;23.53;16.33;;;15.20;99.90;;;;;;5133743;27;20461;-62
2022/01/01 11:00:11;;;;;;;18.50;14.30;;;15.30;99.90;;;;;;5134240;27;21166;-62
2022/01/01 11:02:39;;;;;;;25.63;15.93;;;15.30;99.90;;;;;;5133744;27;20467;-62
2022/01/01 11:05:07;;;;;;;21.17;14.73;;;15.20;99.90;;;;;;5133796;27;20495;-63
2022/01/01 11:07:36;;;;;;;27.37;16.53;;;15.30;99.90;;;;;;5133013;27;20484;-62
2022/01/01 11:10:04;;;;;;;22.03;16.30;;;15.30;99.90;;;;;;5133926;27;20589;-63
2022/01/01 11:12:32;;;;;;;22.30;16.67;;;15.30;99.90;;;;;;5133277;27;20470;-62
2022/01/01 11:15:03;;;;;;;23.00;17.43;;;15.30;99.90;;;;;;5133847;27;20808;-62
2022/01/01 11:17:32;;;;;;;21.67;15.20;;;15.30;99.90;;;;;;5133358;27;20474;-62
2022/01/01 11:20:00;;;;;;;24.83;16.67;;;15.30;99.90;;;;;;5133785;27;20616;-63
2022/01/01 11:22:28;;;;;;;20.77;14.57;;;15.30;99.90;;;;;;5132608;27;20492;-62
2022/01/01 11:24:57;;;;;;;27.87;15.73;;;15.20;99.90;;;;;;5133888;27;20461;-62
2022/01/01 11:27:26;;;;;;;28.90;16.50;;;15.30;99.90;;;;;;5133562;27;20945;-62
2022/01/01 11:29:55;;;;;;;21.40;13.77;;;15.30;99.90;;;;;;5133451;27;21224;-62
2022/01/01 11:32:24;;;;;;;19.80;13.73;;;15.30;99.90;;;;;;5133704;27;20465;-62
2022/01/01 11:34:54;;;;;;;22.30;14.87;;;15.30;99.90;;;;;;5133326;27;20462;-63
2022/01/01 11:37:22;;;;;;;16.90;14.03;;;15.30;99.90;;;;;;5133467;27;20478;-63
2022/01/01 11:39:57;;;;;;;20.73;15.07;;;15.30;99.90;;;;;;5133299;27;20428;-63
2022/01/01 11:42:24;;;;;;;22.03;15.43;;;15.20;99.90;;;;;;5133733;27;20776;-63
2022/01/01 11:44:53;;;;;;;26.23;18.27;;;15.30;99.90;;;;;;5133148;27;20454;-62
2022/01/01 11:47:21;;;;;;;19.97;13.63;;;15.30;99.90;;;;;;5133411;27;21086;-63
2022/01/01 11:49:49;;;;;;;20.40;13.93;;;15.30;99.90;;;;;;5133194;27;20470;-62
2022/01/01 11:52:38;;;;;;;20.63;16.90;;;15.30;99.90;;;;;;5133368;27;20525;-63
2022/01/01 11:55:12;;;;;;;16.37;12.63;;;15.30;99.90;;;;;;5133829;27;20451;-62
2022/01/01 11:57:39;;;;;;;20.03;16.20;;;15.30;99.90;;;;;;5133260;27;21306;-62
2022/01/01 12:00:13;;;;;;;20.27;14.50;;;15.30;99.90;;;;;;5133275;27;20471;-63
2022/01/01 12:02:49;;;;;;;15.50;13.90;;;15.30;99.90;;;;;;5133130;27;20869;-63
2022/01/01 12:05:27;;;;;;;24.87;14.37;;;15.30;99.90;;;;;;5133029;27;20465;-63
2022/01/01 12:07:57;;;;;;;23.03;13.90;;;15.40;99.90;;;;;;5133024;27;20539;-63
2022/01/01 12:10:31;;;;;;;20.83;15.50;;;15.40;99.90;;;;;;5132826;27;20486;-64
2022/01/01 12:13:00;;;;;;;21.13;16.90;;;15.40;99.90;;;;;;5133396;27;20463;-63
2022/01/01 12:15:31;;;;;;;17.80;15.17;;;15.30;99.90;;;;;;5132790;27;20525;-63
2022/01/01 12:18:01;;;;;;;27.17;16.10;;;15.30;99.90;;;;;;5133200;27;20467;-62
2022/01/01 12:20:30;;;;;;;23.67;14.70;;;15.40;99.90;;;;;;5132863;27;20471;-63
2022/01/01 12:22:57;;;;;;;24.33;15.00;;;15.40;99.90;;;;;;5133136;27;20463;-63
2022/01/01 12:25:27;;;;;;;30.40;18.53;;;15.40;99.90;;;;;;5132836;27;20469;-63
2022/01/01 12:27:56;;;;;;;20.30;13.30;;;15.40;99.90;;;;;;5133229;27;20483;-63
2022/01/01 12:30:41;;;;;;;18.27;15.33;;;15.40;99.90;;;;;;5132638;27;20474;-63
2022/01/01 12:33:11;;;;;;;17.83;13.30;;;15.40;99.90;;;;;;5133398;27;20469;-63
2022/01/01 12:35:41;;;;;;;20.13;15.87;;;15.50;99.90;;;;;;5136525;27;20457;-63
2022/01/01 12:38:08;;;;;;;19.60;13.50;;;15.40;99.90;;;;;;5136921;27;20812;-63